Time;durP1;ratioP1;P1;durP2;ratioP2;P2;SDS_P1;SDS_P2;PMS_P1;PMS_P2;Temp;Humidity;BMP_temperature;BMP_pressure;BME280_temperature;BME280_humidity;BME280_pressure;Samples;Min_cycle;Max_cycle;Signal;HPM_P1;HPM_P2
2023/06/16 00:00:09;;;;;;;6.68;4.32;;;;;;;18.46;51.18;98976.09;5046088;28;20047;-71
2023/06/16 00:02:37;;;;;;;6.00;4.95;;;;;;;18.47;50.85;98975.13;5045444;28;20045;-71
2023/06/16 00:05:05;;;;;;;6.32;4.60;;;;;;;18.54;50.69;98978.94;5045994;28;20042;-71
2023/06/16 00:07:33;;;;;;;4.65;3.90;;;;;;;18.41;51.04;98975.69;5046203;28;20336;-71
2023/06/16 00:10:01;;;;;;;4.45;3.40;;;;;;;18.32;51.35;98978.38;5045954;28;20045;-71
2023/06/16 00:12:28;;;;;;;4.53;3.53;;;;;;;18.41;50.66;98980.22;5045888;28;20058;-71
2023/06/16 00:14:54;;;;;;;4.25;3.22;;;;;;;18.50;50.46;98977.50;5045868;28;20319;-71
2023/06/16 00:17:23;;;;;;;3.78;3.15;;;;;;;18.52;50.32;98977.41;5044637;28;20033;-71
2023/06/16 00:19:50;;;;;;;4.68;3.42;;;;;;;18.19;50.41;98939.28;5045542;28;20104;-71
2023/06/16 00:22:17;;;;;;;4.30;3.30;;;;;;;18.37;51.00;98974.28;5045482;28;20041;-71
2023/06/16 00:24:45;;;;;;;4.57;3.13;;;;;;;18.35;51.19;98984.31;5046055;28;20049;-71
2023/06/16 00:27:13;;;;;;;3.80;2.88;;;;;;;18.09;51.29;98938.44;5045701;28;20103;-71
2023/06/16 00:29:40;;;;;;;4.20;2.85;;;;;;;18.24;51.26;98976.41;5045951;28;20041;-71
2023/06/16 00:32:08;;;;;;;4.30;3.20;;;;;;;17.65;51.17;98872.00;5045902;28;20099;-72
2023/06/16 00:34:34;;;;;;;4.25;3.15;;;;;;;18.35;50.88;98978.09;5044545;28;20095;-71
2023/06/16 00:37:01;;;;;;;7.03;3.17;;;;;;;18.25;50.61;98978.09;5045572;28;20037;-71
2023/06/16 00:39:28;;;;;;;3.75;3.17;;;;;;;18.28;50.48;98977.81;5044344;28;20063;-73
2023/06/16 00:41:55;;;;;;;5.03;3.30;;;;;;;18.37;49.93;98981.47;5044454;28;20050;-73
2023/06/16 00:44:24;;;;;;;3.75;2.70;;;;;;;18.28;50.30;98977.81;5045372;28;20037;-72
2023/06/16 00:46:51;;;;;;;8.65;5.50;;;;;;;18.26;49.94;98977.97;5044446;28;20041;-70
2023/06/16 00:49:18;;;;;;;3.67;3.10;;;;;;;18.27;50.02;98979.66;5045278;28;20045;-70
2023/06/16 00:51:45;;;;;;;3.67;2.75;;;;;;;18.17;49.92;98976.13;5044688;28;20061;-72
2023/06/16 00:54:16;;;;;;;4.00;2.97;;;;;;;18.13;50.21;98974.72;5045627;28;20076;-72
2023/06/16 00:56:45;;;;;;;6.45;5.80;;;;;;;18.18;49.70;98976.97;5049131;28;20076;-71
2023/06/16 00:59:11;;;;;;;8.60;7.68;;;;;;;18.14;50.12;98968.38;5049476;28;20108;-71
2023/06/16 01:01:39;;;;;;;5.55;4.90;;;;;;;18.09;49.85;98967.09;5049729;28;20041;-71
2023/06/16 01:04:06;;;;;;;5.22;3.88;;;;;;;17.28;50.10;98849.41;5049276;28;20060;-71
2023/06/16 01:06:51;;;;;;;4.13;3.10;;;;;;;18.02;50.42;98966.81;5049550;28;20112;-70
2023/06/16 01:09:27;;;;;;;3.13;2.60;;;;;;;18.02;50.12;98968.66;5049263;28;20053;-70
2023/06/16 01:12:05;;;;;;;3.60;3.08;;;;;;;17.99;50.76;98969.78;5049153;28;20037;-71
2023/06/16 01:14:43;;;;;;;3.38;2.80;;;;;;;17.97;50.63;98963.72;5049149;28;20201;-70
2023/06/16 01:17:15;;;;;;;5.40;3.08;;;;;;;17.95;50.46;98963.84;5048992;28;20049;-71
2023/06/16 01:19:50;;;;;;;5.30;3.10;;;;;;;17.90;50.23;98965.25;5049351;28;20056;-71
2023/06/16 01:22:32;;;;;;;4.28;3.25;;;;;;;17.86;50.79;98961.16;5049277;28;20293;-71
2023/06/16 01:25:04;;;;;;;3.95;3.03;;;;;;;17.89;50.61;98958.22;5048738;28;20045;-71
2023/06/16 01:27:32;;;;;;;3.60;2.40;;;;;;;17.73;50.66;98942.69;5049182;28;20044;-71
2023/06/16 01:30:01;;;;;;;4.20;3.20;;;;;;;17.14;51.23;98889.09;5048586;28;20061;-71
2023/06/16 01:32:28;;;;;;;3.50;2.67;;;;;;;17.70;50.57;98950.16;5048525;28;20040;-71
2023/06/16 01:34:56;;;;;;;4.80;3.33;;;;;;;17.67;51.16;98950.44;5048762;28;20282;-71
2023/06/16 01:37:23;;;;;;;4.63;3.60;;;;;;;17.66;51.07;98949.59;5048344;28;20046;-71
2023/06/16 01:39:53;;;;;;;4.25;3.03;;;;;;;17.69;51.02;98951.97;5047414;28;20124;-70
2023/06/16 01:42:22;;;;;;;5.18;3.53;;;;;;;17.76;50.88;98955.81;5048559;28;20045;-70
2023/06/16 01:44:49;;;;;;;3.33;2.90;;;;;;;17.71;51.23;98951.84;5049028;28;20049;-70
2023/06/16 01:47:16;;;;;;;3.72;2.70;;;;;;;17.68;51.03;98955.66;5048209;28;20041;-70
2023/06/16 01:49:44;;;;;;;4.50;2.90;;;;;;;17.71;51.20;98957.22;5048423;28;20053;-71
2023/06/16 01:52:11;;;;;;;4.22;3.00;;;;;;;17.69;51.27;98956.50;5048439;28;20259;-70
2023/06/16 01:54:37;;;;;;;3.70;2.97;;;;;;;17.61;51.02;98950.00;5047370;28;20091;-70
2023/06/16 01:57:05;;;;;;;3.80;3.05;;;;;;;17.56;51.46;98949.53;5047860;28;20087;-70
2023/06/16 01:59:34;;;;;;;4.80;3.25;;;;;;;17.53;51.57;98948.97;5048572;28;20289;-70
2023/06/16 02:02:05;;;;;;;4.32;3.13;;;;;;;17.38;51.23;98935.13;5048184;28;20042;-70
2023/06/16 02:04:33;;;;;;;4.53;3.03;;;;;;;17.55;51.26;98947.00;5048153;28;20116;-70
2023/06/16 02:07:04;;;;;;;4.20;2.92;;;;;;;17.05;51.53;98866.66;5047833;28;20033;-70
2023/06/16 02:09:35;;;;;;;3.58;3.00;;;;;;;17.43;51.77;98946.28;5047849;28;20041;-70
2023/06/16 02:12:04;;;;;;;4.30;3.17;;;;;;;17.47;51.70;98950.38;5046924;28;20037;-70
2023/06/16 02:14:33;;;;;;;4.88;3.30;;;;;;;17.55;51.01;98952.34;5046903;28;20037;-70
2023/06/16 02:17:04;;;;;;;3.80;3.17;;;;;;;17.47;50.92;98944.16;5048143;28;20095;-70
2023/06/16 02:19:31;;;;;;;4.15;3.13;;;;;;;17.43;51.60;98954.31;5046807;28;20041;-70
2023/06/16 02:21:58;;;;;;;4.07;3.30;;;;;;;17.39;51.29;98952.03;5046766;28;20041;-70
2023/06/16 02:24:25;;;;;;;4.22;3.10;;;;;;;17.34;51.47;98954.28;5047837;28;20045;-70
2023/06/16 02:26:51;;;;;;;4.38;3.47;;;;;;;17.36;51.29;98945.13;5047579;28;20144;-70
2023/06/16 02:29:18;;;;;;;3.65;3.05;;;;;;;17.38;51.10;98948.50;5048009;28;20041;-71
2023/06/16 02:31:48;;;;;;;3.90;2.95;;;;;;;16.15;51.29;98762.25;5047741;28;20037;-71
2023/06/16 02:34:16;;;;;;;4.80;2.90;;;;;;;17.30;51.10;98951.03;5047656;28;20205;-71
2023/06/16 02:36:43;;;;;;;3.90;2.80;;;;;;;17.23;51.22;98950.72;5047526;28;20190;-71
2023/06/16 02:39:10;;;;;;;5.53;3.15;;;;;;;17.26;51.66;98952.28;5047213;28;20053;-71
2023/06/16 02:41:37;;;;;;;3.67;3.00;;;;;;;17.24;51.19;98949.75;5047481;28;20057;-71
2023/06/16 02:44:04;;;;;;;4.05;2.67;;;;;;;17.24;51.46;98954.25;5047461;28;20356;-71
2023/06/16 02:46:30;;;;;;;3.40;2.67;;;;;;;17.17;51.42;98950.38;5047632;28;20107;-71
2023/06/16 02:48:58;;;;;;;3.67;2.80;;;;;;;17.14;51.44;98954.19;5047622;28;20113;-71
2023/06/16 02:51:25;;;;;;;4.05;2.90;;;;;;;16.31;52.13;98818.75;5046143;28;20091;-70
2023/06/16 02:53:52;;;;;;;3.78;3.38;;;;;;;17.07;52.17;98950.34;5046668;28;20038;-71
2023/06/16 02:56:20;;;;;;;3.50;2.88;;;;;;;17.04;52.30;98947.94;5047467;28;20048;-71
2023/06/16 02:58:47;;;;;;;6.40;3.08;;;;;;;17.05;52.37;98948.81;5047096;28;20072;-71
2023/06/16 03:01:14;;;;;;;4.47;3.15;;;;;;;17.06;52.37;98950.50;5047364;28;20042;-71
2023/06/16 03:03:42;;;;;;;4.25;2.90;;;;;;;16.79;52.51;98911.78;5046793;28;20084;-71
2023/06/16 03:06:10;;;;;;;4.03;3.22;;;;;;;17.04;52.51;98952.47;5046994;28;20294;-71
2023/06/16 03:08:37;;;;;;;3.88;3.10;;;;;;;17.03;52.24;98948.09;5045890;28;20108;-71
2023/06/16 03:11:04;;;;;;;4.15;3.05;;;;;;;16.99;52.53;98951.03;5046921;28;20057;-70
2023/06/16 03:13:30;;;;;;;4.53;3.80;;;;;;;16.99;52.98;98951.03;5046869;28;20041;-70
2023/06/16 03:15:57;;;;;;;5.43;3.13;;;;;;;17.06;52.40;98945.13;5047079;28;20041;-71
2023/06/16 03:18:24;;;;;;;5.25;4.25;;;;;;;16.61;53.54;98913.38;5045967;28;20041;-71
2023/06/16 03:20:51;;;;;;;4.75;3.30;;;;;;;16.95;53.02;98960.31;5046742;28;20037;-71
2023/06/16 03:23:19;;;;;;;4.97;3.75;;;;;;;16.99;53.21;98956.38;5046904;28;20041;-70
2023/06/16 03:25:46;;;;;;;5.57;3.88;;;;;;;17.00;52.75;98958.09;5046394;28;20045;-71
2023/06/16 03:28:13;;;;;;;6.18;4.50;;;;;;;16.95;53.27;98962.16;5046586;28;20044;-71
2023/06/16 03:30:40;;;;;;;4.90;3.78;;;;;;;16.91;53.46;98958.88;5046541;28;20344;-71
2023/06/16 03:33:07;;;;;;;4.85;3.55;;;;;;;16.86;54.10;98960.28;5046705;28;20045;-71
2023/06/16 03:35:34;;;;;;;4.78;3.58;;;;;;;16.93;53.39;98962.28;5046616;28;20041;-71
2023/06/16 03:38:01;;;;;;;4.55;3.40;;;;;;;16.87;53.65;98976.19;5046353;28;20039;-71
2023/06/16 03:40:29;;;;;;;5.28;4.38;;;;;;;16.83;53.92;98969.41;5046517;28;20049;-71
2023/06/16 03:42:55;;;;;;;4.95;4.25;;;;;;;16.90;53.87;98977.75;5046233;28;20341;-71
2023/06/16 03:45:22;;;;;;;5.70;4.32;;;;;;;16.92;53.92;98981.16;5045434;28;20293;-71
2023/06/16 03:47:49;;;;;;;6.15;3.65;;;;;;;16.93;53.52;98983.69;5045099;28;20041;-71
2023/06/16 03:50:15;;;;;;;4.13;3.65;;;;;;;16.82;54.27;98982.94;5046446;28;20048;-71
2023/06/16 03:52:42;;;;;;;6.95;4.32;;;;;;;16.79;54.29;98988.56;5045800;28;20049;-71
2023/06/16 03:55:09;;;;;;;4.80;3.90;;;;;;;16.80;53.96;98991.09;5046097;28;20090;-71
2023/06/16 03:57:37;;;;;;;5.65;3.55;;;;;;;16.84;54.12;98980.97;5044835;28;20040;-71
2023/06/16 04:00:08;;;;;;;4.72;3.50;;;;;;;16.83;54.40;98990.81;5046010;28;20047;-71
2023/06/16 04:02:35;;;;;;;5.45;3.90;;;;;;;16.91;54.01;98990.16;5044873;28;20091;-71
2023/06/16 04:05:02;;;;;;;5.40;3.83;;;;;;;16.89;54.22;98994.81;5046234;28;20197;-71
2023/06/16 04:07:29;;;;;;;5.38;3.80;;;;;;;16.90;54.39;98985.78;5045848;28;20043;-71
2023/06/16 04:09:56;;;;;;;7.45;3.90;;;;;;;16.89;54.85;98992.97;5045643;28;20049;-71
2023/06/16 04:12:23;;;;;;;4.65;3.83;;;;;;;16.52;53.97;98924.88;5045898;28;20037;-71
2023/06/16 04:14:51;;;;;;;4.72;4.22;;;;;;;16.99;53.59;98983.16;5045245;28;20193;-71
2023/06/16 04:17:18;;;;;;;4.22;3.33;;;;;;;17.02;53.31;98989.22;5045685;28;20314;-71
2023/06/16 04:19:46;;;;;;;5.38;3.65;;;;;;;17.06;53.12;98986.16;5045502;28;20236;-71
2023/06/16 04:22:12;;;;;;;5.38;4.03;;;;;;;17.04;53.46;98993.47;5046005;28;20048;-71
2023/06/16 04:24:39;;;;;;;4.85;3.50;;;;;;;17.03;53.19;98985.56;5045456;28;20045;-70
2023/06/16 04:27:08;;;;;;;4.00;3.45;;;;;;;16.99;53.52;98990.34;5045858;28;20084;-71
2023/06/16 04:29:41;;;;;;;4.90;3.67;;;;;;;16.92;53.96;98983.81;5045605;28;20083;-71
2023/06/16 04:32:13;;;;;;;5.95;3.67;;;;;;;16.99;54.20;98983.16;5045944;28;20297;-71
2023/06/16 04:34:40;;;;;;;6.18;3.90;;;;;;;16.95;54.14;98983.56;5045333;28;20041;-71
2023/06/16 04:37:09;;;;;;;4.65;3.72;;;;;;;17.07;53.52;98981.63;5044359;28;20033;-71
2023/06/16 04:39:37;;;;;;;6.65;4.18;;;;;;;17.09;53.67;98979.69;5045054;28;20053;-71
2023/06/16 04:42:06;;;;;;;4.95;4.15;;;;;;;17.08;53.84;98977.97;5044442;28;20057;-71
2023/06/16 04:44:33;;;;;;;4.47;3.80;;;;;;;17.13;53.54;98976.59;5045800;28;20046;-71
2023/06/16 04:47:00;;;;;;;3.97;3.35;;;;;;;17.12;53.75;98976.72;5045476;28;20109;-71
2023/06/16 04:49:28;;;;;;;5.03;3.95;;;;;;;17.11;54.01;98977.72;5045212;28;20055;-71
2023/06/16 04:51:55;;;;;;;4.78;3.70;;;;;;;17.10;54.22;98976.00;5045720;28;20041;-71
2023/06/16 04:54:22;;;;;;;5.43;3.88;;;;;;;17.13;54.02;98975.75;5044302;28;20053;-71
2023/06/16 04:56:49;;;;;;;5.07;4.10;;;;;;;17.18;54.29;98969.00;5045403;28;20043;-71
2023/06/16 04:59:16;;;;;;;4.60;3.92;;;;;;;17.19;54.38;98981.41;5045237;28;20041;-71
2023/06/16 05:01:42;;;;;;;4.88;3.78;;;;;;;16.77;54.33;98934.31;5045456;28;20037;-71
2023/06/16 05:04:09;;;;;;;7.07;3.78;;;;;;;17.13;54.39;98976.59;5045551;28;20055;-71
2023/06/16 05:06:37;;;;;;;5.20;4.00;;;;;;;17.12;54.67;98988.28;5044141;28;20083;-71
2023/06/16 05:09:05;;;;;;;4.85;3.97;;;;;;;17.21;54.50;98982.16;5045492;28;20033;-71
2023/06/16 05:11:32;;;;;;;5.35;3.97;;;;;;;17.24;54.34;98981.03;5045063;28;20083;-71
2023/06/16 05:13:58;;;;;;;4.97;4.22;;;;;;;17.17;54.27;98983.38;5044797;28;20042;-71
2023/06/16 05:16:25;;;;;;;5.45;3.55;;;;;;;17.20;54.50;98983.13;5045327;28;20050;-71
2023/06/16 05:18:52;;;;;;;7.72;4.32;;;;;;;17.24;54.47;98981.88;5044878;28;20045;-71
2023/06/16 05:21:24;;;;;;;4.53;3.60;;;;;;;17.21;54.02;98984.84;5045384;28;20043;-71
2023/06/16 05:23:52;;;;;;;5.13;4.30;;;;;;;17.28;54.31;98990.50;5044828;28;20297;-71
2023/06/16 05:26:21;;;;;;;6.25;3.90;;;;;;;17.19;54.93;98986.75;5045339;28;20107;-71
2023/06/16 05:28:47;;;;;;;4.72;3.85;;;;;;;17.21;54.65;98979.47;5044800;28;20060;-71
2023/06/16 05:31:15;;;;;;;4.72;3.70;;;;;;;17.25;54.49;98986.25;5045207;28;20037;-71
2023/06/16 05:33:42;;;;;;;4.50;3.58;;;;;;;16.79;54.55;98897.56;5044927;28;20049;-71
2023/06/16 05:36:08;;;;;;;4.82;4.28;;;;;;;17.19;54.38;98956.47;5044926;28;20356;-71
2023/06/16 05:38:35;;;;;;;5.45;3.75;;;;;;;17.21;54.24;98965.25;5044400;28;20057;-72
2023/06/16 05:41:03;;;;;;;5.32;4.15;;;;;;;17.36;54.53;98974.59;5046560;28;20049;-71
2023/06/16 05:43:30;;;;;;;5.13;4.28;;;;;;;17.33;54.04;98974.84;5048681;28;20312;-71
2023/06/16 05:45:56;;;;;;;5.47;3.92;;;;;;;17.42;53.91;98979.41;5048423;28;20056;-71
2023/06/16 05:48:23;;;;;;;4.40;3.75;;;;;;;17.44;54.21;98977.44;5048095;28;20050;-71
2023/06/16 05:50:50;;;;;;;3.92;3.45;;;;;;;17.48;53.65;98986.88;5048658;28;20364;-71
2023/06/16 05:53:17;;;;;;;4.57;3.72;;;;;;;17.53;53.83;98979.28;5048324;28;20051;-71
2023/06/16 05:55:43;;;;;;;4.05;3.50;;;;;;;17.54;54.10;98975.63;5048530;28;20053;-71
2023/06/16 05:58:11;;;;;;;10.88;4.03;;;;;;;17.59;53.81;98980.56;5048152;28;20045;-71
2023/06/16 06:00:38;;;;;;;4.63;3.75;;;;;;;17.53;53.82;98978.44;5048199;28;20049;-71
2023/06/16 06:03:05;;;;;;;4.10;3.47;;;;;;;17.61;53.91;98984.00;5048396;28;20053;-71
2023/06/16 06:05:31;;;;;;;4.70;3.60;;;;;;;17.48;54.35;98965.44;5048148;28;20194;-71
2023/06/16 06:07:58;;;;;;;5.20;3.60;;;;;;;17.63;54.43;98982.88;5048044;28;20290;-71
2023/06/16 06:10:25;;;;;;;5.53;4.22;;;;;;;17.71;54.62;98987.53;5047790;28;20060;-71
2023/06/16 06:12:51;;;;;;;5.07;4.25;;;;;;;17.78;54.63;98982.47;5048050;28;20045;-71
2023/06/16 06:15:20;;;;;;;5.00;4.28;;;;;;;17.84;54.33;98988.13;5046750;28;20078;-71
2023/06/16 06:17:46;;;;;;;5.80;4.53;;;;;;;17.86;53.92;98993.34;5047687;28;20141;-71
2023/06/16 06:20:13;;;;;;;6.82;4.53;;;;;;;17.92;54.04;98984.75;5048119;28;20045;-71
2023/06/16 06:22:40;;;;;;;4.65;4.07;;;;;;;17.97;53.98;98990.53;5047399;28;20068;-71
2023/06/16 06:25:07;;;;;;;6.00;4.20;;;;;;;18.03;53.93;98983.75;5047776;28;20053;-71
2023/06/16 06:27:34;;;;;;;8.25;4.90;;;;;;;18.08;53.95;98986.88;5047465;28;20068;-71
2023/06/16 06:30:01;;;;;;;6.43;3.80;;;;;;;18.13;53.94;98992.66;5047631;28;20309;-71
2023/06/16 06:32:29;;;;;;;4.95;4.28;;;;;;;18.17;54.16;98986.88;5047337;28;20064;-71
2023/06/16 06:34:56;;;;;;;5.80;4.40;;;;;;;18.23;53.68;98986.28;5047279;28;20048;-71
2023/06/16 06:37:29;;;;;;;5.32;4.03;;;;;;;18.26;53.58;98987.84;5046411;28;20156;-71
2023/06/16 06:39:56;;;;;;;4.60;4.03;;;;;;;18.33;53.48;98985.44;5047227;28;20061;-72
2023/06/16 06:42:23;;;;;;;6.15;3.60;;;;;;;18.41;53.42;98985.56;5047663;28;20046;-71
2023/06/16 06:44:50;;;;;;;5.15;4.13;;;;;;;18.45;53.23;98990.50;5047627;28;20047;-72
2023/06/16 06:47:17;;;;;;;4.75;3.90;;;;;;;18.26;53.04;98987.84;5046190;28;20061;-72
2023/06/16 06:49:45;;;;;;;4.60;3.40;;;;;;;18.54;53.04;98992.38;5046252;28;20033;-72
2023/06/16 06:52:12;;;;;;;4.40;3.40;;;;;;;18.54;52.81;98988.84;5045786;28;20041;-72
2023/06/16 06:54:39;;;;;;;4.95;3.97;;;;;;;18.54;52.39;98992.38;5046572;28;20268;-72
2023/06/16 06:57:06;;;;;;;4.30;3.25;;;;;;;18.65;51.76;98994.03;5046842;28;20067;-72
2023/06/16 06:59:33;;;;;;;4.68;4.07;;;;;;;18.73;51.11;99002.22;5045779;28;20033;-71
2023/06/16 07:02:00;;;;;;;4.85;3.85;;;;;;;18.75;50.81;98992.19;5047058;28;20243;-72
2023/06/16 07:04:27;;;;;;;5.18;4.40;;;;;;;18.85;50.13;98995.69;5047256;28;20052;-72
2023/06/16 07:06:55;;;;;;;7.45;3.30;;;;;;;18.87;49.37;98993.69;5047199;28;20112;-72
2023/06/16 07:09:22;;;;;;;5.88;4.28;;;;;;;19.03;48.98;98997.59;5046890;28;20068;-72
2023/06/16 07:11:49;;;;;;;5.00;3.78;;;;;;;19.21;49.18;98995.84;5046631;28;20037;-72
2023/06/16 07:14:15;;;;;;;4.95;3.75;;;;;;;19.36;49.61;99001.56;5047038;28;20112;-71
2023/06/16 07:16:42;;;;;;;5.93;3.75;;;;;;;19.46;49.69;98995.19;5047125;28;20091;-72
2023/06/16 07:19:09;;;;;;;5.50;3.85;;;;;;;19.54;49.66;99003.34;5047010;28;20112;-72
2023/06/16 07:21:38;;;;;;;4.88;4.07;;;;;;;19.78;49.53;98991.19;5046665;28;20037;-72
2023/06/16 07:24:07;;;;;;;4.97;4.22;;;;;;;19.96;48.37;98996.59;5047005;28;20261;-72
2023/06/16 07:26:34;;;;;;;6.15;4.00;;;;;;;20.22;47.99;98994.00;5046764;28;20041;-72
2023/06/16 07:29:01;;;;;;;4.97;3.80;;;;;;;19.89;47.61;98921.06;5045342;28;20092;-72
2023/06/16 07:31:28;;;;;;;6.90;4.38;;;;;;;20.56;47.04;98996.84;5046429;28;20049;-72
2023/06/16 07:33:55;;;;;;;4.95;4.20;;;;;;;20.81;46.53;98994.16;5045262;28;20041;-72
2023/06/16 07:36:22;;;;;;;7.32;4.32;;;;;;;20.94;46.30;98982.13;5046329;28;20103;-72
2023/06/16 07:38:48;;;;;;;6.28;4.43;;;;;;;21.11;46.21;98992.00;5045822;28;20104;-71
2023/06/16 07:41:17;;;;;;;6.88;4.25;;;;;;;21.25;44.43;98983.31;5046656;28;20063;-72
2023/06/16 07:43:43;;;;;;;13.98;3.85;;;;;;;21.33;44.03;98991.44;5046257;28;20055;-72
2023/06/16 07:46:10;;;;;;;7.90;5.50;;;;;;;21.57;44.11;98987.16;5046740;28;20055;-72
2023/06/16 07:48:37;;;;;;;5.72;4.90;;;;;;;21.67;42.71;98979.78;5045951;28;20045;-72
2023/06/16 07:51:04;;;;;;;6.45;4.15;;;;;;;21.62;42.55;98963.25;5046046;28;20041;-72
2023/06/16 07:53:31;;;;;;;6.85;4.35;;;;;;;21.90;42.67;98983.56;5046333;28;20055;-71
2023/06/16 07:55:58;;;;;;;4.97;3.90;;;;;;;22.08;42.84;98969.94;5046375;28;20317;-72
2023/06/16 07:58:26;;;;;;;6.35;5.10;;;;;;;21.97;42.64;98981.91;5045974;28;20091;-72
2023/06/16 08:00:52;;;;;;;5.22;3.63;;;;;;;22.19;42.22;98977.72;5045715;28;20232;-72
2023/06/16 08:03:19;;;;;;;6.85;4.55;;;;;;;22.44;42.57;98978.59;5046013;28;20053;-72
2023/06/16 08:05:46;;;;;;;7.78;4.15;;;;;;;22.61;41.70;98972.19;5045892;28;20045;-72
2023/06/16 08:08:13;;;;;;;5.50;4.18;;;;;;;22.79;40.61;98973.84;5045585;28;20097;-72
2023/06/16 08:10:40;;;;;;;5.03;4.38;;;;;;;22.92;40.71;98971.47;5044756;28;20103;-72
2023/06/16 08:13:07;;;;;;;7.40;4.75;;;;;;;23.02;40.46;98970.25;5046078;28;20069;-72
2023/06/16 08:15:35;;;;;;;7.32;5.18;;;;;;;23.11;39.32;98968.38;5045812;28;20045;-72
2023/06/16 08:18:02;;;;;;;6.07;4.18;;;;;;;23.11;40.51;98962.97;5044641;28;20071;-72
2023/06/16 08:20:29;;;;;;;7.22;4.57;;;;;;;23.34;40.38;98958.53;5045879;28;20061;-72
2023/06/16 08:22:55;;;;;;;5.88;4.10;;;;;;;23.46;39.59;98955.44;5044489;28;20120;-72
2023/06/16 08:25:23;;;;;;;6.95;4.90;;;;;;;23.50;39.96;98952.19;5045341;28;20046;-72
2023/06/16 08:27:50;;;;;;;8.25;4.57;;;;;;;23.50;39.69;98952.19;5045341;28;20044;-72
2023/06/16 08:30:16;;;;;;;4.40;3.90;;;;;;;23.33;40.31;98951.44;5045619;28;20045;-72
2023/06/16 08:32:45;;;;;;;5.72;4.05;;;;;;;23.61;39.97;98953.66;5044447;28;20121;-72
2023/06/16 08:35:12;;;;;;;5.53;4.28;;;;;;;23.74;39.09;98953.06;5045720;28;20045;-72
2023/06/16 08:37:40;;;;;;;4.93;3.53;;;;;;;23.83;38.44;98955.56;5045222;28;20111;-72
2023/06/16 08:40:10;;;;;;;4.97;3.83;;;;;;;23.89;38.81;98945.88;5044824;28;20049;-72
2023/06/16 08:42:38;;;;;;;5.82;3.78;;;;;;;23.81;38.76;98951.34;5045449;28;20068;-72
2023/06/16 08:45:06;;;;;;;5.78;4.15;;;;;;;23.96;38.99;98950.38;5045654;28;20137;-72
2023/06/16 08:47:34;;;;;;;6.75;5.85;;;;;;;24.18;37.93;98945.19;5045344;28;20053;-72
2023/06/16 08:50:02;;;;;;;7.65;4.72;;;;;;;24.18;37.63;98946.03;5044881;28;20052;-72
2023/06/16 08:52:32;;;;;;;7.32;4.72;;;;;;;24.28;37.87;98943.91;5045668;28;20151;-72
2023/06/16 08:55:01;;;;;;;9.90;5.15;;;;;;;24.00;37.70;98880.53;5045275;28;20063;-72
2023/06/16 08:57:30;;;;;;;6.88;4.72;;;;;;;24.60;36.72;98944.66;5045309;28;20040;-72
2023/06/16 08:59:59;;;;;;;8.23;5.13;;;;;;;24.58;35.91;98936.72;5044839;28;20037;-72
2023/06/16 09:02:29;;;;;;;10.80;5.20;;;;;;;24.71;37.14;98938.81;5045259;28;20049;-72
2023/06/16 09:04:58;;;;;;;6.15;4.35;;;;;;;24.80;36.16;98936.88;5045260;28;20225;-72
2023/06/16 09:07:27;;;;;;;10.65;4.63;;;;;;;24.76;36.24;98939.09;5044188;28;20045;-72
2023/06/16 09:09:54;;;;;;;4.68;4.10;;;;;;;24.88;36.29;98926.78;5045027;28;20293;-72
2023/06/16 09:12:21;;;;;;;5.32;4.43;;;;;;;24.97;35.56;98930.22;5045204;28;20048;-72
2023/06/16 09:14:50;;;;;;;6.38;4.40;;;;;;;25.01;35.80;98928.88;5045221;28;20301;-72
2023/06/16 09:17:23;;;;;;;6.22;4.30;;;;;;;25.03;35.61;98924.09;5048942;28;20051;-72
2023/06/16 09:19:51;;;;;;;5.97;4.63;;;;;;;24.93;35.74;98928.94;5047721;28;20124;-72
2023/06/16 09:22:20;;;;;;;5.93;4.65;;;;;;;24.99;34.65;98924.63;5047688;28;20037;-72
2023/06/16 09:24:55;;;;;;;6.10;4.07;;;;;;;25.11;35.91;98918.56;5048803;28;20052;-72
2023/06/16 09:27:23;;;;;;;6.88;4.60;;;;;;;24.85;35.92;98927.16;5048546;28;20325;-72
2023/06/16 09:29:57;;;;;;;6.53;3.75;;;;;;;24.77;35.60;98913.69;5048534;28;20034;-72
2023/06/16 09:32:24;;;;;;;7.13;4.75;;;;;;;25.05;35.51;98916.63;5049048;28;20096;-72
2023/06/16 09:34:51;;;;;;;7.32;4.95;;;;;;;24.81;35.93;98840.97;5047620;28;20048;-72
2023/06/16 09:37:19;;;;;;;6.65;4.30;;;;;;;25.35;34.77;98900.34;5048905;28;20087;-72
2023/06/16 09:39:46;;;;;;;5.30;4.30;;;;;;;25.38;34.69;98905.38;5048069;28;20093;-72
2023/06/16 09:42:16;;;;;;;6.18;4.55;;;;;;;25.39;34.46;98907.06;5048574;28;20093;-72
2023/06/16 09:44:43;;;;;;;8.60;5.13;;;;;;;25.21;34.98;98874.91;5048717;28;20037;-72
2023/06/16 09:47:13;;;;;;;7.68;4.68;;;;;;;25.39;34.25;98904.34;5048464;28;20060;-72
2023/06/16 09:49:40;;;;;;;7.40;4.50;;;;;;;25.34;34.44;98906.81;5048318;28;20293;-72
2023/06/16 09:52:07;;;;;;;7.60;4.47;;;;;;;25.56;33.97;98894.97;5047303;28;20213;-72
2023/06/16 09:54:35;;;;;;;9.35;7.75;;;;;;;25.66;34.23;98898.19;5048405;28;20055;-72
2023/06/16 09:57:02;;;;;;;8.38;6.43;;;;;;;25.74;33.87;98892.66;5046910;28;20049;-72
2023/06/16 09:59:30;;;;;;;7.20;5.22;;;;;;;25.70;33.86;98885.94;5048396;28;20041;-72
2023/06/16 10:01:58;;;;;;;5.47;4.70;;;;;;;25.79;33.53;98887.50;5048460;28;20049;-72
2023/06/16 10:04:26;;;;;;;6.72;5.57;;;;;;;25.86;33.93;98892.97;5047684;28;20116;-72
2023/06/16 10:06:57;;;;;;;10.75;5.05;;;;;;;25.74;33.12;98883.66;5048021;28;20289;-72
2023/06/16 10:09:28;;;;;;;6.50;4.63;;;;;;;25.81;33.85;98893.56;5047693;28;20049;-72
2023/06/16 10:11:56;;;;;;;9.07;6.10;;;;;;;25.93;33.59;98880.31;5047597;28;20119;-72
2023/06/16 10:14:27;;;;;;;7.93;6.28;;;;;;;25.89;32.87;98879.88;5047380;28;20084;-72
2023/06/16 10:16:58;;;;;;;8.45;6.40;;;;;;;25.99;32.57;98879.56;5047893;28;20045;-72
2023/06/16 10:19:27;;;;;;;8.27;5.78;;;;;;;25.20;32.94;98760.16;5047604;28;20045;-72
2023/06/16 10:21:54;;;;;;;5.60;4.72;;;;;;;25.93;33.13;98872.16;5046693;28;20037;-72
2023/06/16 10:24:21;;;;;;;5.30;4.47;;;;;;;23.77;33.65;98517.97;5046671;28;20041;-72
2023/06/16 10:26:49;;;;;;;5.97;4.75;;;;;;;25.86;33.28;98873.97;5046406;28;20044;-72
2023/06/16 10:29:20;;;;;;;5.97;3.92;;;;;;;25.64;32.53;98867.72;5047301;28;20042;-72
2023/06/16 10:31:49;;;;;;;6.88;4.35;;;;;;;25.28;31.69;98865.81;5047604;28;20042;-72
2023/06/16 10:34:24;;;;;;;8.20;4.55;;;;;;;25.59;32.92;98867.44;5047048;28;20037;-72
2023/06/16 10:36:52;;;;;;;7.57;5.25;;;;;;;25.75;32.16;98864.47;5046288;28;20041;-72
2023/06/16 10:39:19;;;;;;;5.47;4.50;;;;;;;25.78;32.33;98863.25;5046987;28;20046;-72
2023/06/16 10:41:51;;;;;;;6.38;4.43;;;;;;;25.88;32.14;98861.91;5047280;28;20336;-72
2023/06/16 10:44:23;;;;;;;6.35;4.93;;;;;;;25.37;32.33;98787.91;5046973;28;20033;-72
2023/06/16 10:47:27;;;;;;;8.65;4.35;;;;;;;25.88;31.51;98859.19;5047030;28;20045;-72
2023/06/16 10:49:58;;;;;;;5.10;3.83;;;;;;;25.85;31.72;98859.56;5047555;28;20072;-72
2023/06/16 10:52:51;;;;;;;6.30;4.38;;;;;;;25.78;32.50;98817.13;5047035;28;20045;-72
2023/06/16 10:55:26;;;;;;;6.28;4.82;;;;;;;26.09;31.80;98843.94;5047440;28;20236;-72
2023/06/16 10:58:23;;;;;;;7.82;4.93;;;;;;;26.10;31.26;98853.75;5046527;28;20045;-72
2023/06/16 11:01:05;;;;;;;6.95;3.85;;;;;;;25.83;32.05;98845.34;5046617;28;20044;-72
2023/06/16 11:03:36;;;;;;;4.20;3.47;;;;;;;25.87;31.36;98830.34;5047277;28;20053;-72
2023/06/16 11:06:05;;;;;;;5.28;4.20;;;;;;;25.45;31.31;98727.28;5046889;28;20163;-71
2023/06/16 11:08:49;;;;;;;6.05;4.25;;;;;;;26.13;30.66;98834.38;5047042;28;20289;-72
2023/06/16 11:11:17;;;;;;;6.82;3.92;;;;;;;26.22;31.64;98834.03;5046399;28;20088;-72
2023/06/16 11:13:43;;;;;;;7.57;3.88;;;;;;;26.13;30.77;98829.78;5046915;28;20045;-71
2023/06/16 11:16:10;;;;;;;6.07;4.28;;;;;;;26.11;31.72;98826.41;5046328;28;20289;-70
2023/06/16 11:18:37;;;;;;;6.60;4.03;;;;;;;26.07;30.41;98821.56;5046944;28;20104;-70
2023/06/16 11:21:07;;;;;;;6.40;4.97;;;;;;;26.26;32.47;98823.59;5046422;28;20060;-70
2023/06/16 11:23:34;;;;;;;8.48;5.00;;;;;;;26.28;32.08;98818.81;5046560;28;20041;-71
2023/06/16 11:26:07;;;;;;;10.48;5.18;;;;;;;26.34;31.77;98820.72;5046220;28;20045;-71
2023/06/16 11:28:35;;;;;;;7.07;4.55;;;;;;;26.21;30.77;98816.03;5046542;28;20294;-70
2023/06/16 11:31:02;;;;;;;7.03;4.88;;;;;;;26.16;30.95;98813.09;5046903;28;20033;-71
2023/06/16 11:33:32;;;;;;;10.40;4.72;;;;;;;25.96;32.14;98765.91;5046382;28;20099;-70
2023/06/16 11:36:17;;;;;;;6.85;4.15;;;;;;;25.83;31.47;98750.34;5046501;28;20057;-70
2023/06/16 11:38:45;;;;;;;5.72;4.18;;;;;;;25.90;31.77;98783.81;5045618;28;20053;-71